Time;durP1;ratioP1;P1;durP2;ratioP2;P2;SDS_P1;SDS_P2;PMS_P1;PMS_P2;Temp;Humidity;BMP_temperature;BMP_pressure;BME280_temperature;BME280_humidity;BME280_pressure;Samples;Min_cycle;Max_cycle;Signal;HPM_P1;HPM_P2
2022/03/14 00:00:26;;;;;;;11.43;6.43;;;11.10;82.80;;;;;;7390145;19;20451;-74
2022/03/14 00:02:52;;;;;;;10.23;6.63;;;11.30;82.30;;;;;;7389452;19;20119;-73
2022/03/14 00:05:18;;;;;;;10.67;6.83;;;11.40;82.20;;;;;;7389176;19;20173;-72
2022/03/14 00:07:45;;;;;;;9.03;6.10;;;11.50;81.80;;;;;;7386109;19;20126;-72
2022/03/14 00:10:14;;;;;;;13.27;6.57;;;11.50;82.30;;;;;;7389384;19;20162;-74
2022/03/14 00:12:42;;;;;;;10.03;6.53;;;11.50;83.00;;;;;;7390503;19;20130;-74
2022/03/14 00:15:12;;;;;;;9.73;6.23;;;11.50;83.70;;;;;;7391282;19;20154;-72
2022/03/14 00:17:45;;;;;;;10.20;6.37;;;11.50;83.90;;;;;;7390939;19;20144;-72
2022/03/14 00:20:13;;;;;;;9.47;6.43;;;11.40;84.30;;;;;;7392104;19;20139;-74
2022/03/14 00:22:39;;;;;;;9.57;6.07;;;11.30;84.40;;;;;;7391165;19;20138;-74
2022/03/14 00:25:05;;;;;;;11.37;5.97;;;11.20;85.10;;;;;;7390847;19;20135;-71
2022/03/14 00:27:31;;;;;;;11.10;6.77;;;11.20;84.80;;;;;;7386413;19;20497;-72
2022/03/14 00:29:57;;;;;;;10.00;6.40;;;11.30;84.60;;;;;;7387086;19;20221;-74
2022/03/14 00:32:23;;;;;;;9.60;6.33;;;11.40;84.70;;;;;;7389238;19;20167;-74
2022/03/14 00:34:49;;;;;;;13.60;7.20;;;11.40;84.60;;;;;;7389340;19;20138;-74
2022/03/14 00:37:15;;;;;;;14.57;6.93;;;11.30;85.00;;;;;;7392791;19;20163;-73
2022/03/14 00:39:41;;;;;;;12.47;6.50;;;11.40;85.00;;;;;;7389194;19;20130;-71
2022/03/14 00:42:07;;;;;;;9.37;5.40;;;11.40;85.00;;;;;;7390504;19;20155;-72
2022/03/14 00:44:34;;;;;;;9.93;5.80;;;10.90;85.50;;;;;;7388554;19;20151;-73
2022/03/14 00:46:59;;;;;;;10.77;6.70;;;10.80;85.60;;;;;;7387221;19;20146;-74
2022/03/14 00:49:25;;;;;;;13.47;7.00;;;10.90;85.00;;;;;;7391292;19;20264;-72
2022/03/14 00:51:51;;;;;;;8.90;6.23;;;11.00;84.60;;;;;;7395414;19;20141;-71
2022/03/14 00:54:17;;;;;;;9.40;6.33;;;11.00;85.20;;;;;;7390477;19;20239;-72
2022/03/14 00:56:42;;;;;;;9.20;6.37;;;10.90;84.80;;;;;;7386767;19;20137;-73
2022/03/14 00:59:08;;;;;;;11.07;5.90;;;11.10;83.50;;;;;;7388335;19;20138;-74
2022/03/14 01:01:34;;;;;;;10.10;6.30;;;11.10;81.70;;;;;;7389550;19;20130;-72
2022/03/14 01:04:00;;;;;;;10.57;5.87;;;11.20;82.00;;;;;;7388705;19;20131;-74
2022/03/14 01:07:18;;;;;;;8.30;5.70;;;11.30;82.60;;;;;;7388792;19;20168;-76
2022/03/14 01:13:41;;;;;;;10.73;6.43;;;11.60;84.80;;;;;;7391533;19;20169;-77
2022/03/14 01:24:15;;;;;;;11.10;5.73;;;11.70;88.60;;;;;;7384788;19;20504;-76
2022/03/14 01:27:36;;;;;;;11.80;6.57;;;11.60;87.70;;;;;;7384243;19;20169;-76
2022/03/14 01:31:11;;;;;;;;;;;;;;;;;;;;;
2022/03/14 01:34:19;;;;;;;10.13;7.70;;;11.50;91.90;;;;;;7392132;19;20135;-77
2022/03/14 01:40:36;;;;;;;;;;;;;;;;;;;;;
2022/03/14 01:46:53;;;;;;;12.77;8.27;;;11.70;98.10;;;;;;7386584;19;20159;-74
2022/03/14 01:49:36;;;;;;;13.20;8.80;;;11.60;99.10;;;;;;7391073;19;20155;-74
2022/03/14 02:06:04;;;;;;;11.80;8.23;;;11.60;99.90;;;;;;7388351;19;20150;-79
2022/03/14 02:12:34;;;;;;;10.70;7.70;;;11.80;99.90;;;;;;7384472;19;20160;-75
2022/03/14 02:19:55;;;;;;;;;;;;;;;;;;;;;
2022/03/14 02:23:00;;;;;;;13.83;9.50;;;11.90;99.90;;;;;;7388822;19;20134;-75
2022/03/14 02:25:26;;;;;;;13.27;9.23;;;11.80;99.90;;;;;;7394458;19;20490;-75
2022/03/14 02:27:51;;;;;;;14.17;9.27;;;11.90;99.90;;;;;;7389852;19;20146;-74
2022/03/14 02:30:18;;;;;;;13.23;8.17;;;11.80;99.90;;;;;;7384733;19;20187;-75
2022/03/14 02:32:45;;;;;;;13.97;8.50;;;11.70;99.90;;;;;;7385529;19;20487;-74
2022/03/14 02:35:12;;;;;;;14.90;9.43;;;11.70;99.90;;;;;;7386341;19;20130;-74
2022/03/14 02:37:38;;;;;;;11.37;8.17;;;11.60;99.90;;;;;;7386620;19;20134;-75
2022/03/14 02:40:05;;;;;;;9.63;7.70;;;11.70;99.90;;;;;;7386077;19;20142;-74
2022/03/14 02:42:31;;;;;;;13.20;8.83;;;11.70;99.90;;;;;;7385613;19;20689;-73
2022/03/14 02:44:57;;;;;;;13.30;8.93;;;11.60;99.90;;;;;;7387806;19;20150;-75
2022/03/14 02:47:23;;;;;;;12.80;8.97;;;11.60;99.90;;;;;;7386144;19;20140;-73
2022/03/14 02:49:49;;;;;;;10.27;7.97;;;11.70;99.90;;;;;;7389976;19;20546;-75
2022/03/14 02:52:14;;;;;;;12.37;8.70;;;11.70;99.90;;;;;;7398454;19;20622;-74
2022/03/14 02:54:42;;;;;;;13.57;9.27;;;11.70;99.90;;;;;;7388774;19;20131;-74
2022/03/14 02:57:09;;;;;;;13.30;8.90;;;11.70;99.90;;;;;;7384346;19;20161;-72
2022/03/14 02:59:35;;;;;;;13.73;9.13;;;11.60;99.90;;;;;;7386349;19;20130;-76
2022/03/14 03:02:01;;;;;;;13.40;9.17;;;11.60;99.90;;;;;;7386977;19;20147;-73
2022/03/14 03:04:27;;;;;;;16.65;9.32;;;11.70;99.90;;;;;;7384056;19;20135;-73
2022/03/14 03:06:54;;;;;;;14.83;9.27;;;11.70;99.90;;;;;;7383775;19;20202;-76
2022/03/14 03:09:20;;;;;;;13.33;9.00;;;11.60;99.90;;;;;;7385606;19;20630;-76
2022/03/14 03:11:46;;;;;;;14.30;9.07;;;11.60;99.90;;;;;;7386232;19;20202;-73
2022/03/14 03:14:12;;;;;;;17.90;8.63;;;11.60;99.90;;;;;;7386176;19;20626;-73
2022/03/14 03:16:38;;;;;;;13.43;8.30;;;11.50;99.90;;;;;;7385699;19;20525;-75
2022/03/14 03:19:06;;;;;;;14.03;8.47;;;11.50;99.90;;;;;;7385078;19;20135;-75
2022/03/14 03:21:34;;;;;;;15.67;9.60;;;11.10;99.90;;;;;;7386591;19;20146;-74
2022/03/14 03:24:01;;;;;;;11.53;7.80;;;11.00;99.90;;;;;;7386679;19;20148;-75
2022/03/14 03:26:26;;;;;;;11.00;7.33;;;11.00;99.90;;;;;;7383638;19;20139;-75
2022/03/14 03:28:52;;;;;;;10.23;6.30;;;11.00;99.90;;;;;;7384585;19;20162;-72
2022/03/14 03:31:21;;;;;;;11.00;6.63;;;11.10;99.90;;;;;;7384360;19;20142;-71
2022/03/14 03:33:48;;;;;;;10.23;6.93;;;11.10;99.90;;;;;;7384607;19;20135;-72
2022/03/14 03:36:14;;;;;;;8.80;6.50;;;11.20;99.90;;;;;;7387601;19;20145;-75
2022/03/14 03:38:40;;;;;;;9.97;6.57;;;11.40;99.90;;;;;;7392697;19;20131;-75
2022/03/14 03:41:06;;;;;;;10.33;6.70;;;11.30;99.90;;;;;;7385282;19;20230;-72
2022/03/14 03:43:32;;;;;;;7.83;5.60;;;11.30;99.90;;;;;;7387037;19;20142;-75
2022/03/14 03:45:59;;;;;;;8.97;6.50;;;11.50;99.90;;;;;;7384916;19;20177;-74
2022/03/14 03:48:25;;;;;;;9.70;6.23;;;11.50;99.90;;;;;;7388343;19;20147;-75
2022/03/14 03:50:51;;;;;;;10.23;6.80;;;11.50;99.90;;;;;;7392855;19;20146;-75
2022/03/14 03:53:17;;;;;;;7.50;5.70;;;11.40;99.90;;;;;;7394032;19;20147;-73
2022/03/14 03:55:42;;;;;;;7.90;6.07;;;11.40;99.90;;;;;;7395313;19;20155;-73
2022/03/14 03:58:08;;;;;;;10.77;5.97;;;11.30;99.90;;;;;;7394723;19;20151;-73
2022/03/14 04:00:34;;;;;;;11.40;6.30;;;11.30;99.90;;;;;;7390297;19;20139;-74
2022/03/14 04:03:00;;;;;;;10.47;6.70;;;11.30;99.90;;;;;;7390845;19;20615;-72
2022/03/14 04:05:27;;;;;;;8.90;6.77;;;11.40;99.90;;;;;;7392404;19;20139;-73
2022/03/14 04:07:59;;;;;;;11.00;7.13;;;11.40;99.90;;;;;;7388248;19;20226;-73
2022/03/14 04:10:28;;;;;;;11.00;5.77;;;11.30;99.90;;;;;;7396107;19;20586;-73
2022/03/14 04:12:59;;;;;;;9.63;6.30;;;11.20;99.90;;;;;;7389991;19;20150;-75
2022/03/14 04:15:27;;;;;;;8.73;6.13;;;11.20;99.90;;;;;;7391284;19;20154;-73
2022/03/14 04:17:54;;;;;;;10.53;7.07;;;11.20;99.90;;;;;;7392048;19;20131;-72
2022/03/14 04:20:22;;;;;;;7.73;5.60;;;11.20;99.90;;;;;;7394139;19;20143;-75
2022/03/14 04:22:48;;;;;;;7.97;5.60;;;11.10;99.90;;;;;;7390375;19;20491;-75
2022/03/14 04:25:14;;;;;;;8.63;6.03;;;11.10;99.90;;;;;;7389372;19;20133;-72
2022/03/14 04:27:40;;;;;;;8.50;6.20;;;10.90;99.90;;;;;;7387186;19;20135;-73
2022/03/14 04:30:07;;;;;;;9.30;5.97;;;10.90;99.90;;;;;;7387752;19;20158;-75
2022/03/14 04:32:32;;;;;;;9.90;6.23;;;10.90;99.90;;;;;;7391624;19;20139;-77
2022/03/14 04:34:58;;;;;;;8.33;6.07;;;11.00;99.90;;;;;;7389606;19;20935;-76
2022/03/14 04:37:24;;;;;;;5.47;3.87;;;10.80;99.90;;;;;;7389173;19;20146;-73
2022/03/14 04:39:50;;;;;;;5.67;3.83;;;10.60;99.90;;;;;;7389325;19;20477;-73
2022/03/14 04:42:17;;;;;;;5.00;3.30;;;10.40;99.90;;;;;;7395573;19;20661;-75
2022/03/14 04:44:44;;;;;;;4.33;3.60;;;10.50;99.90;;;;;;7396034;19;20138;-73
2022/03/14 04:47:10;;;;;;;4.60;3.10;;;10.70;99.90;;;;;;7388565;19;20147;-73
2022/03/14 04:49:36;;;;;;;4.17;3.47;;;10.80;99.90;;;;;;7388560;19;20134;-75
2022/03/14 04:52:02;;;;;;;5.40;3.93;;;10.90;99.90;;;;;;7388844;19;20143;-75
2022/03/14 04:54:28;;;;;;;5.50;4.20;;;10.90;99.90;;;;;;7389226;19;20914;-76
2022/03/14 04:56:54;;;;;;;5.20;3.90;;;10.60;99.90;;;;;;7386156;19;20901;-76
2022/03/14 04:59:21;;;;;;;5.47;4.00;;;10.50;99.90;;;;;;7389915;19;20135;-76
2022/03/14 05:01:47;;;;;;;5.67;4.00;;;10.60;99.90;;;;;;7393094;19;20168;-73
2022/03/14 05:04:13;;;;;;;5.67;3.80;;;10.80;99.90;;;;;;7393831;19;20131;-76
2022/03/14 05:06:39;;;;;;;6.50;4.07;;;10.90;99.90;;;;;;7389217;19;20148;-75
2022/03/14 05:09:05;;;;;;;6.57;3.80;;;10.90;99.90;;;;;;7389061;19;20477;-76
2022/03/14 05:11:32;;;;;;;5.50;4.00;;;10.90;99.90;;;;;;7389081;19;20134;-75
2022/03/14 05:13:59;;;;;;;5.83;3.80;;;10.80;99.90;;;;;;7389946;19;20135;-75
2022/03/14 05:16:25;;;;;;;5.93;3.83;;;10.80;99.90;;;;;;7387154;19;20150;-76
2022/03/14 05:18:51;;;;;;;4.17;3.20;;;10.80;99.90;;;;;;7390793;19;20146;-77
2022/03/14 05:21:18;;;;;;;4.93;3.33;;;10.80;99.90;;;;;;7390551;19;20147;-76
2022/03/14 05:23:44;;;;;;;6.17;3.57;;;10.80;99.90;;;;;;7389836;19;20138;-78
2022/03/14 05:26:09;;;;;;;5.53;2.37;;;10.80;99.90;;;;;;7389492;19;20598;-73
2022/03/14 05:28:35;;;;;;;3.73;2.23;;;10.80;99.90;;;;;;7387022;19;20138;-72
2022/03/14 05:31:01;;;;;;;4.70;2.20;;;10.90;99.90;;;;;;7387450;19;20139;-76
2022/03/14 05:33:27;;;;;;;7.03;1.93;;;11.00;99.90;;;;;;7387951;19;20173;-76
2022/03/14 05:35:54;;;;;;;4.33;1.87;;;10.90;99.90;;;;;;7386913;19;20127;-75
2022/03/14 05:38:21;;;;;;;3.33;1.53;;;11.00;99.90;;;;;;7387183;19;20134;-72
2022/03/14 05:40:47;;;;;;;5.13;1.50;;;10.90;99.90;;;;;;7386676;19;20167;-73
2022/03/14 05:43:13;;;;;;;5.67;1.57;;;10.90;99.90;;;;;;7390583;19;20131;-77
2022/03/14 05:45:38;;;;;;;4.57;1.60;;;10.90;99.90;;;;;;7391625;19;20210;-76
2022/03/14 05:48:05;;;;;;;3.13;1.40;;;10.80;99.90;;;;;;7386095;19;20161;-73
2022/03/14 05:50:32;;;;;;;6.27;1.57;;;10.70;99.90;;;;;;7386497;19;20130;-75
2022/03/14 05:52:58;;;;;;;2.97;1.10;;;10.80;99.90;;;;;;7388385;19;20134;-72
2022/03/14 05:55:23;;;;;;;2.93;1.10;;;10.70;99.90;;;;;;7386549;19;20142;-75
2022/03/14 05:57:49;;;;;;;6.50;1.10;;;10.70;99.90;;;;;;7386384;19;20119;-77
2022/03/14 06:00:24;;;;;;;1.60;1.10;;;10.80;99.90;;;;;;7386695;19;20146;-73
2022/03/14 06:02:52;;;;;;;2.20;0.80;;;10.80;99.90;;;;;;7387033;19;20171;-74
2022/03/14 06:05:20;;;;;;;2.87;1.00;;;10.90;99.90;;;;;;7387507;19;20188;-73
2022/03/14 06:07:46;;;;;;;1.27;0.80;;;11.00;99.90;;;;;;7384672;19;20211;-77
2022/03/14 06:10:13;;;;;;;1.70;0.80;;;10.80;99.90;;;;;;7388815;19;20142;-78
2022/03/14 06:12:39;;;;;;;2.00;1.00;;;10.80;99.90;;;;;;7387561;19;20133;-76
2022/03/14 06:15:09;;;;;;;1.10;0.80;;;10.70;99.90;;;;;;7386456;19;20471;-77
2022/03/14 06:17:35;;;;;;;0.80;0.70;;;10.70;99.90;;;;;;7385926;19;20138;-75
2022/03/14 06:20:03;;;;;;;1.23;0.70;;;10.70;99.90;;;;;;7388595;19;20163;-76
2022/03/14 06:22:29;;;;;;;1.07;0.60;;;10.80;99.90;;;;;;7386345;19;20155;-76
2022/03/14 06:24:55;;;;;;;0.43;0.40;;;10.60;99.90;;;;;;7395803;19;20159;-73
2022/03/14 06:27:22;;;;;;;0.50;0.47;;;10.70;99.90;;;;;;7383757;19;20486;-73
2022/03/14 06:29:48;;;;;;;1.57;0.40;;;10.60;99.90;;;;;;7388487;19;20165;-77
2022/03/14 06:32:15;;;;;;;0.60;0.50;;;10.80;99.90;;;;;;7391433;19;20131;-72
2022/03/14 06:34:42;;;;;;;0.77;0.60;;;10.90;99.90;;;;;;7386516;19;20154;-72
2022/03/14 06:37:09;;;;;;;2.43;0.80;;;10.80;99.90;;;;;;7390469;19;20228;-76
2022/03/14 06:39:36;;;;;;;1.57;0.80;;;10.90;99.90;;;;;;7389004;19;20150;-76
2022/03/14 06:42:05;;;;;;;1.37;0.80;;;10.60;99.90;;;;;;7390764;19;20485;-73
2022/03/14 06:44:31;;;;;;;2.57;0.80;;;10.70;99.90;;;;;;7390755;19;20175;-72
2022/03/14 06:46:56;;;;;;;2.77;0.87;;;10.70;99.90;;;;;;7387346;19;20214;-72
2022/03/14 06:49:24;;;;;;;1.93;0.60;;;10.70;99.90;;;;;;7389146;19;20145;-76
2022/03/14 06:51:50;;;;;;;1.57;0.70;;;10.60;99.90;;;;;;7390453;19;20134;-77
2022/03/14 06:54:17;;;;;;;2.67;0.57;;;10.50;99.90;;;;;;7387662;19;20126;-72
2022/03/14 06:56:47;;;;;;;0.80;0.67;;;10.40;99.90;;;;;;7384463;19;20135;-75
2022/03/14 06:59:13;;;;;;;1.00;0.50;;;10.50;99.90;;;;;;7377829;19;20515;-73
2022/03/14 07:01:39;;;;;;;3.10;0.60;;;10.60;99.90;;;;;;7380679;19;20155;-74
2022/03/14 07:04:05;;;;;;;1.30;0.50;;;10.70;99.90;;;;;;7386765;19;20169;-75
2022/03/14 07:06:31;;;;;;;0.87;0.80;;;10.60;99.90;;;;;;7391694;19;20540;-77
2022/03/14 07:08:57;;;;;;;1.20;0.70;;;10.60;99.90;;;;;;7380019;19;20462;-76
2022/03/14 07:11:23;;;;;;;1.70;0.77;;;10.40;99.90;;;;;;7383589;19;20223;-73
2022/03/14 07:13:49;;;;;;;1.57;0.73;;;10.30;99.90;;;;;;7389737;19;20217;-76
2022/03/14 07:16:14;;;;;;;0.80;0.60;;;10.50;99.90;;;;;;7389557;19;20139;-72
2022/03/14 07:18:40;;;;;;;3.90;0.60;;;10.50;99.90;;;;;;7386043;19;20158;-72
2022/03/14 07:21:06;;;;;;;1.93;0.77;;;10.50;99.90;;;;;;7391344;19;20145;-73
2022/03/14 07:23:32;;;;;;;1.07;0.60;;;10.60;99.90;;;;;;7394827;19;20788;-73
2022/03/14 07:25:58;;;;;;;1.30;0.70;;;10.40;99.90;;;;;;7395530;19;20134;-72
2022/03/14 07:28:23;;;;;;;2.07;0.70;;;10.40;99.90;;;;;;7394975;19;20162;-73
2022/03/14 07:30:49;;;;;;;2.20;0.70;;;10.50;99.90;;;;;;7389709;19;20177;-72
2022/03/14 07:33:15;;;;;;;1.27;0.70;;;10.40;99.90;;;;;;7393831;19;20135;-76
2022/03/14 07:35:41;;;;;;;3.33;1.43;;;10.50;99.90;;;;;;7394835;19;20538;-76
2022/03/14 07:38:10;;;;;;;1.93;1.10;;;10.40;99.90;;;;;;7395397;19;20127;-73
2022/03/14 07:40:36;;;;;;;4.07;1.23;;;10.50;99.90;;;;;;7393957;19;20139;-71
2022/03/14 07:43:03;;;;;;;3.17;1.00;;;10.60;99.90;;;;;;7394406;19;20147;-72
2022/03/14 07:45:29;;;;;;;1.53;0.73;;;10.60;99.90;;;;;;7393436;19;20123;-75
2022/03/14 07:47:56;;;;;;;1.57;0.80;;;10.50;99.90;;;;;;7390765;19;20135;-72
2022/03/14 07:50:23;;;;;;;1.87;0.80;;;10.40;99.90;;;;;;7394663;19;20142;-75
2022/03/14 07:52:49;;;;;;;2.90;0.90;;;10.60;99.90;;;;;;7410680;19;20130;-72
2022/03/14 07:55:16;;;;;;;1.87;0.90;;;10.70;99.90;;;;;;7394556;19;20201;-74
2022/03/14 07:57:42;;;;;;;3.33;0.80;;;10.80;99.90;;;;;;7389903;19;20131;-73
2022/03/14 08:00:11;;;;;;;0.97;0.57;;;10.80;99.90;;;;;;7390961;19;20599;-76
2022/03/14 08:02:38;;;;;;;1.50;0.60;;;10.80;99.90;;;;;;7391720;19;20145;-75
2022/03/14 08:05:06;;;;;;;2.10;0.77;;;11.00;99.90;;;;;;7390913;19;20201;-74
2022/03/14 08:07:34;;;;;;;1.57;0.60;;;11.10;99.90;;;;;;7389649;19;20610;-78
2022/03/14 08:10:01;;;;;;;1.67;0.98;;;11.60;99.90;;;;;;7390448;19;20391;-73
2022/03/14 08:12:27;;;;;;;4.07;0.90;;;11.60;99.90;;;;;;7399766;19;20267;-77
2022/03/14 08:14:52;;;;;;;2.30;0.77;;;11.90;99.90;;;;;;7401489;19;20767;-78
2022/03/14 08:17:18;;;;;;;2.83;0.80;;;12.10;99.90;;;;;;7390516;19;20127;-77
2022/03/14 08:19:44;;;;;;;2.50;0.77;;;11.80;99.90;;;;;;7389439;19;20147;-73
2022/03/14 08:22:14;;;;;;;1.57;0.80;;;11.70;99.90;;;;;;7392064;19;20127;-74
2022/03/14 08:24:39;;;;;;;1.37;0.50;;;11.80;99.90;;;;;;7392263;19;20157;-72
2022/03/14 08:27:24;;;;;;;2.00;0.57;;;11.60;99.90;;;;;;7390081;19;20238;-73
2022/03/14 08:29:49;;;;;;;3.40;1.40;;;11.50;99.90;;;;;;7392060;19;20162;-75
2022/03/14 08:32:15;;;;;;;3.30;1.00;;;11.50;99.90;;;;;;7389436;19;20379;-77
2022/03/14 08:34:42;;;;;;;1.60;0.57;;;11.20;99.90;;;;;;7394985;19;20171;-75
2022/03/14 08:37:08;;;;;;;10.63;2.33;;;11.40;99.90;;;;;;7398787;19;20143;-75
2022/03/14 08:39:34;;;;;;;1.77;0.80;;;11.50;99.90;;;;;;7391020;19;20153;-77
2022/03/14 08:41:59;;;;;;;0.87;0.67;;;11.30;99.90;;;;;;7390530;19;20742;-76
2022/03/14 08:44:25;;;;;;;1.53;0.60;;;11.30;99.90;;;;;;7392625;19;20134;-76
2022/03/14 08:46:51;;;;;;;4.77;1.63;;;11.30;99.90;;;;;;7388924;19;20236;-74
2022/03/14 08:49:17;;;;;;;1.70;0.90;;;11.50;99.90;;;;;;7390548;19;20688;-77
2022/03/14 08:51:43;;;;;;;1.92;0.70;;;11.70;99.90;;;;;;7393323;19;20138;-74
2022/03/14 08:54:08;;;;;;;2.70;1.00;;;11.80;99.90;;;;;;7399194;19;20139;-74
2022/03/14 08:56:35;;;;;;;2.53;0.97;;;11.90;99.90;;;;;;7391138;19;20150;-73
2022/03/14 08:59:01;;;;;;;3.35;1.00;;;11.90;99.90;;;;;;7389363;19;20384;-73
2022/03/14 09:01:27;;;;;;;1.97;1.00;;;11.80;99.90;;;;;;7392269;19;20566;-75
2022/03/14 09:03:53;;;;;;;4.20;1.10;;;11.70;99.90;;;;;;7391403;19;20151;-73
2022/03/14 09:06:19;;;;;;;4.30;1.70;;;11.90;99.90;;;;;;7392372;19;20463;-76
2022/03/14 09:08:45;;;;;;;2.07;1.00;;;12.00;99.90;;;;;;7394662;19;20138;-77
2022/03/14 09:11:11;;;;;;;3.43;0.73;;;12.20;99.90;;;;;;7389564;19;20473;-73
2022/03/14 09:13:38;;;;;;;5.50;1.43;;;12.30;99.90;;;;;;7390868;19;20126;-77
2022/03/14 09:16:08;;;;;;;5.90;1.27;;;12.40;99.90;;;;;;7394511;19;20198;-73
2022/03/14 09:18:35;;;;;;;6.73;0.93;;;12.70;99.90;;;;;;7402023;19;20127;-74
2022/03/14 09:21:01;;;;;;;5.03;0.83;;;12.90;99.90;;;;;;7396077;19;20139;-76
2022/03/14 09:23:27;;;;;;;5.20;1.10;;;13.10;99.90;;;;;;7390197;19;20126;-73
2022/03/14 09:25:55;;;;;;;2.80;0.80;;;13.00;99.90;;;;;;7386881;19;20138;-76
2022/03/14 09:28:21;;;;;;;5.67;2.00;;;12.80;99.90;;;;;;7392093;19;20139;-78
2022/03/14 09:30:47;;;;;;;4.30;1.17;;;12.90;99.90;;;;;;7390045;19;20172;-74
2022/03/14 09:33:13;;;;;;;5.50;1.50;;;13.00;99.90;;;;;;7394436;19;20164;-79
2022/03/14 09:35:39;;;;;;;0.80;0.57;;;13.10;99.90;;;;;;7398726;19;20518;-76
2022/03/14 09:38:06;;;;;;;3.57;1.70;;;13.00;99.90;;;;;;7390254;19;20150;-77
2022/03/14 09:40:32;;;;;;;2.60;1.00;;;13.10;99.90;;;;;;7389970;19;20150;-75
2022/03/14 09:42:59;;;;;;;2.30;0.70;;;13.30;99.90;;;;;;7391283;19;20221;-74
2022/03/14 09:45:26;;;;;;;3.43;0.73;;;13.30;99.90;;;;;;7389620;19;20148;-75
2022/03/14 09:47:57;;;;;;;2.53;0.90;;;13.50;99.90;;;;;;7387756;19;20147;-74
2022/03/14 09:50:27;;;;;;;3.30;1.03;;;13.60;99.90;;;;;;7391682;19;20528;-77
2022/03/14 09:52:54;;;;;;;4.20;1.00;;;13.80;99.90;;;;;;7385817;19;20184;-78
2022/03/14 09:55:20;;;;;;;1.93;1.10;;;13.90;99.90;;;;;;7387854;19;20153;-77
2022/03/14 09:57:47;;;;;;;2.77;0.97;;;13.80;99.90;;;;;;7391612;19;20138;-78
2022/03/14 10:00:14;;;;;;;2.58;1.02;;;13.70;99.90;;;;;;7390377;19;20568;-77
2022/03/14 10:02:41;;;;;;;3.57;1.40;;;13.70;99.90;;;;;;7398304;19;20141;-76
2022/03/14 10:05:09;;;;;;;3.23;1.20;;;13.70;99.90;;;;;;7387750;19;20164;-76
2022/03/14 10:07:36;;;;;;;2.60;0.97;;;13.70;99.90;;;;;;7387394;19;20138;-73
2022/03/14 10:10:04;;;;;;;7.80;1.47;;;13.90;99.90;;;;;;7389856;19;20215;-74
2022/03/14 10:12:32;;;;;;;1.07;0.70;;;13.90;99.90;;;;;;7387315;19;20126;-76
2022/03/14 10:14:59;;;;;;;2.53;0.90;;;13.90;99.90;;;;;;7385502;19;20470;-74
2022/03/14 10:17:27;;;;;;;3.63;1.43;;;13.90;99.90;;;;;;7387413;19;20139;-74
2022/03/14 10:20:06;;;;;;;2.55;1.10;;;14.10;99.90;;;;;;7387171;19;20562;-76
2022/03/14 10:22:37;;;;;;;3.67;1.00;;;14.30;99.90;;;;;;7388279;19;20130;-75
2022/03/14 10:25:13;;;;;;;2.13;0.80;;;14.50;99.90;;;;;;7386155;19;20127;-75
2022/03/14 10:27:41;;;;;;;2.83;1.10;;;14.70;99.10;;;;;;7390113;19;20146;-75
2022/03/14 10:30:21;;;;;;;1.77;0.82;;;14.70;99.40;;;;;;7383855;19;20173;-74
2022/03/14 10:32:49;;;;;;;2.85;1.13;;;14.60;99.00;;;;;;7384628;19;20142;-77
2022/03/14 10:35:21;;;;;;;1.75;1.42;;;14.50;99.20;;;;;;7384429;19;20127;-74
2022/03/14 10:38:04;;;;;;;5.18;1.75;;;14.60;99.40;;;;;;7383907;19;20153;-75
2022/03/14 10:40:37;;;;;;;1.48;0.75;;;14.60;97.50;;;;;;7393549;19;20135;-78
2022/03/14 10:43:24;;;;;;;1.35;0.77;;;14.50;98.20;;;;;;7387533;19;20131;-74
2022/03/14 10:45:51;;;;;;;1.30;0.80;;;14.70;98.80;;;;;;7384263;19;20147;-73
2022/03/14 10:48:30;;;;;;;2.50;0.73;;;14.70;97.90;;;;;;7393525;19;20147;-74
2022/03/14 10:51:02;;;;;;;1.98;0.60;;;14.80;98.90;;;;;;7385061;19;20134;-75
2022/03/14 10:53:28;;;;;;;2.95;0.80;;;15.10;97.30;;;;;;7387578;19;20259;-77
2022/03/14 10:55:58;;;;;;;4.47;1.88;;;15.30;97.10;;;;;;7385507;19;20146;-74
2022/03/14 10:58:28;;;;;;;1.65;1.13;;;15.30;96.20;;;;;;7386319;19;20138;-77
2022/03/14 11:00:59;;;;;;;2.08;0.82;;;15.20;96.50;;;;;;7386890;19;20673;-76
2022/03/14 11:03:28;;;;;;;2.55;0.80;;;15.40;97.30;;;;;;7384215;19;20248;-74
2022/03/14 11:05:58;;;;;;;4.53;1.02;;;15.50;96.40;;;;;;7386714;19;20507;-76
2022/03/14 11:08:43;;;;;;;1.48;0.70;;;15.30;96.10;;;;;;7389369;19;20584;-73
2022/03/14 11:11:11;;;;;;;1.80;1.20;;;15.20;95.60;;;;;;7385177;19;20154;-77
2022/03/14 11:13:42;;;;;;;2.38;0.68;;;15.30;95.20;;;;;;7388054;19;20138;-78
2022/03/14 11:16:22;;;;;;;1.58;0.63;;;15.30;96.20;;;;;;7386215;19;20130;-76
2022/03/14 11:18:48;;;;;;;2.35;0.70;;;15.50;94.90;;;;;;7384963;19;20126;-74
2022/03/14 11:21:18;;;;;;;1.42;0.43;;;15.50;95.70;;;;;;7385383;19;20139;-74
2022/03/14 11:23:48;;;;;;;2.13;0.70;;;15.70;94.30;;;;;;7384522;19;20139;-77
2022/03/14 11:26:16;;;;;;;1.10;0.70;;;15.80;94.80;;;;;;7383215;19;20145;-76
2022/03/14 11:28:46;;;;;;;1.38;0.70;;;15.90;94.40;;;;;;7385396;19;20142;-73
2022/03/14 11:31:12;;;;;;;1.52;0.80;;;16.00;94.50;;;;;;7393843;19;20135;-75
2022/03/14 11:33:38;;;;;;;4.20;0.90;;;16.10;94.90;;;;;;7386478;19;20156;-73
2022/03/14 11:36:05;;;;;;;1.00;0.50;;;15.90;93.70;;;;;;7384887;19;20135;-76
2022/03/14 11:38:32;;;;;;;1.02;0.60;;;15.80;94.40;;;;;;7382680;19;20481;-73
2022/03/14 11:41:00;;;;;;;1.20;0.70;;;15.80;93.60;;;;;;7384583;19;20141;-77
2022/03/14 11:43:26;;;;;;;1.08;0.40;;;15.90;93.60;;;;;;7392129;19;20463;-74
2022/03/14 11:45:53;;;;;;;1.38;0.50;;;15.90;92.70;;;;;;7385949;19;20126;-78
2022/03/14 11:48:21;;;;;;;2.70;0.60;;;16.10;93.70;;;;;;7389676;19;20141;-77
2022/03/14 11:50:55;;;;;;;3.40;0.77;;;16.20;93.50;;;;;;7386185;19;20123;-74
2022/03/14 11:53:23;;;;;;;1.75;0.77;;;16.00;93.10;;;;;;7393126;19;20142;-77
2022/03/14 11:56:00;;;;;;;5.47;2.63;;;16.10;92.90;;;;;;7384463;19;20138;-76
2022/03/14 11:58:39;;;;;;;1.50;0.63;;;16.10;92.50;;;;;;7380343;19;20137;-73
2022/03/14 12:01:25;;;;;;;1.50;0.60;;;16.20;92.60;;;;;;7381151;19;20307;-72
2022/03/14 12:03:56;;;;;;;3.13;0.82;;;16.30;93.40;;;;;;7385418;19;20812;-72
2022/03/14 12:06:47;;;;;;;3.63;0.90;;;16.40;92.70;;;;;;7383798;19;20134;-75
2022/03/14 12:09:25;;;;;;;0.60;0.50;;;16.50;92.30;;;;;;7394039;19;20512;-76
2022/03/14 12:11:55;;;;;;;2.65;1.83;;;16.60;92.50;;;;;;7394139;19;20134;-76
2022/03/14 12:14:44;;;;;;;1.67;1.00;;;16.40;91.80;;;;;;7393716;19;20139;-73
2022/03/14 12:17:12;;;;;;;1.80;0.90;;;16.10;92.90;;;;;;7395217;19;20155;-76
2022/03/14 12:19:42;;;;;;;1.52;0.60;;;16.20;91.20;;;;;;7391140;19;20178;-76
2022/03/14 12:22:12;;;;;;;2.08;0.80;;;16.20;92.10;;;;;;7390360;19;20530;-76
2022/03/14 12:24:44;;;;;;;0.90;0.70;;;16.50;92.20;;;;;;7389175;19;20147;-72
2022/03/14 12:27:17;;;;;;;1.80;0.90;;;16.90;91.60;;;;;;7388389;19;20618;-73
2022/03/14 12:29:43;;;;;;;1.60;0.65;;;16.90;91.60;;;;;;7392498;19;20626;-75
2022/03/14 12:32:23;;;;;;;1.63;1.00;;;16.70;91.40;;;;;;7394427;19;20123;-75
2022/03/14 12:35:16;;;;;;;1.45;0.70;;;16.40;91.00;;;;;;7388575;19;20143;-75
2022/03/14 12:37:46;;;;;;;1.80;0.70;;;16.20;91.70;;;;;;7392493;19;20164;-72
2022/03/14 12:40:21;;;;;;;1.55;0.70;;;16.00;92.10;;;;;;7390424;19;20157;-73
2022/03/14 12:42:49;;;;;;;2.83;0.65;;;16.10;91.40;;;;;;7391181;19;20157;-73
2022/03/14 12:45:35;;;;;;;1.58;0.70;;;16.00;91.70;;;;;;7388750;19;20131;-75
2022/03/14 12:48:12;;;;;;;2.17;1.15;;;16.10;91.60;;;;;;7387319;19;20206;-77
2022/03/14 12:50:50;;;;;;;2.40;0.70;;;16.00;91.50;;;;;;7393440;19;20497;-74
2022/03/14 12:53:17;;;;;;;1.88;0.88;;;15.80;92.60;;;;;;7389871;19;20141;-73
2022/03/14 12:55:48;;;;;;;2.40;0.80;;;15.80;92.10;;;;;;7388437;19;20214;-74
2022/03/14 12:58:29;;;;;;;1.75;0.63;;;15.60;92.10;;;;;;7391246;19;20134;-73
2022/03/14 13:00:56;;;;;;;2.35;1.05;;;15.30;92.50;;;;;;7389362;19;20198;-72
2022/03/14 13:03:25;;;;;;;3.08;1.13;;;15.10;92.50;;;;;;7389365;19;20130;-78
2022/03/14 13:05:51;;;;;;;2.95;0.90;;;15.20;92.60;;;;;;7388176;19;20176;-74
2022/03/14 13:08:19;;;;;;;1.20;0.70;;;15.10;92.80;;;;;;7388881;19;20147;-74
2022/03/14 13:10:46;;;;;;;2.17;0.50;;;15.20;92.80;;;;;;7392126;19;20160;-76
2022/03/14 13:13:14;;;;;;;2.00;0.50;;;15.10;92.10;;;;;;7399327;19;20126;-75
2022/03/14 13:15:42;;;;;;;2.45;0.70;;;15.20;92.50;;;;;;7388251;19;20143;-75
2022/03/14 13:18:22;;;;;;;3.75;0.90;;;15.30;92.20;;;;;;7387215;19;20165;-75
2022/03/14 13:20:49;;;;;;;2.97;0.90;;;15.10;92.50;;;;;;7392247;19;20138;-77
2022/03/14 13:23:17;;;;;;;2.50;0.70;;;15.10;92.90;;;;;;7396330;19;20874;-74
2022/03/14 13:25:48;;;;;;;1.83;0.70;;;15.10;93.10;;;;;;7386967;19;20134;-75
2022/03/14 13:28:28;;;;;;;2.22;0.93;;;15.20;92.90;;;;;;7386841;19;20494;-73
2022/03/14 13:30:55;;;;;;;2.28;0.75;;;15.30;92.70;;;;;;7386363;19;20175;-72
2022/03/14 13:33:24;;;;;;;2.90;0.80;;;15.50;92.60;;;;;;7387909;19;20957;-75
2022/03/14 13:35:54;;;;;;;2.30;0.80;;;15.50;92.60;;;;;;7386825;19;20123;-77
2022/03/14 13:38:36;;;;;;;2.00;0.70;;;15.70;92.50;;;;;;7391593;19;20535;-77